Time;durP1;ratioP1;P1;durP2;ratioP2;P2;SDS_P1;SDS_P2;PMS_P1;PMS_P2;Temp;Humidity;BMP_temperature;BMP_pressure;BME280_temperature;BME280_humidity;BME280_pressure;Samples;Min_cycle;Max_cycle;Signal;HPM_P1;HPM_P2
2023/07/05 00:00:55;;;;;;;4.43;2.95;;;;;;;;;;5031151;28;20249;-24
2023/07/05 00:03:22;;;;;;;3.65;2.85;;;;;;;;;;5024015;28;20206;-27
2023/07/05 00:05:49;;;;;;;2.97;2.55;;;;;;;;;;5029378;28;20206;-28
2023/07/05 00:08:18;;;;;;;4.50;3.17;;;;;;;;;;5030359;28;20230;-24
2023/07/05 00:10:45;;;;;;;4.45;2.88;;;;;;;;;;5018341;28;20219;-24
2023/07/05 00:13:12;;;;;;;3.03;2.70;;;;;;;;;;5030721;28;20221;-27
2023/07/05 00:15:39;;;;;;;4.20;2.80;;;;;;;;;;5031238;28;20199;-26
2023/07/05 00:18:06;;;;;;;3.60;2.50;;;;;;;;;;5022988;28;20232;-24
2023/07/05 00:20:33;;;;;;;3.38;2.47;;;;;;;;;;5029739;28;20203;-30
2023/07/05 00:23:01;;;;;;;4.10;3.20;;;;;;;;;;5032222;28;20214;-27
2023/07/05 00:25:29;;;;;;;3.75;3.13;;;;;;;;;;5023730;28;20265;-26
2023/07/05 00:27:57;;;;;;;3.88;2.67;;;;;;;;;;5022608;28;20274;-27
2023/07/05 00:30:24;;;;;;;5.22;3.55;;;;;;;;;;5030126;28;20286;-29
2023/07/05 00:32:51;;;;;;;5.68;2.78;;;;;;;;;;5023045;28;20214;-27
2023/07/05 00:35:18;;;;;;;3.10;2.80;;;;;;;;;;5025219;28;20211;-26
2023/07/05 00:37:45;;;;;;;4.35;2.90;;;;;;;;;;5029190;28;20225;-26
2023/07/05 00:40:13;;;;;;;3.33;2.78;;;;;;;;;;5022820;28;20657;-27
2023/07/05 00:42:42;;;;;;;3.00;2.70;;;;;;;;;;5026001;28;20297;-24
2023/07/05 00:45:36;;;;;;;4.13;3.13;;;;;;;;;;5030109;28;20207;-24
2023/07/05 00:48:03;;;;;;;4.13;2.93;;;;;;;;;;5010316;28;20230;-23
2023/07/05 00:50:36;;;;;;;3.28;2.90;;;;;;;;;;5017754;28;20215;-25
2023/07/05 00:53:05;;;;;;;6.43;2.87;;;;;;;;;;5024547;28;20212;-24
2023/07/05 00:55:33;;;;;;;3.73;3.30;;;;;;;;;;5024327;28;20198;-26
2023/07/05 00:58:01;;;;;;;3.28;2.60;;;;;;;;;;5028557;28;20229;-24
2023/07/05 01:00:29;;;;;;;4.47;2.97;;;;;;;;;;5027264;28;20210;-25
2023/07/05 01:02:56;;;;;;;5.88;3.60;;;;;;;;;;5021498;28;20645;-25
2023/07/05 01:05:24;;;;;;;5.70;3.22;;;;;;;;;;5032013;28;20209;-25
2023/07/05 01:07:51;;;;;;;3.73;3.07;;;;;;;;;;5015268;28;20720;-25
2023/07/05 01:10:19;;;;;;;6.03;3.35;;;;;;;;;;5013440;28;20306;-24
2023/07/05 01:12:47;;;;;;;4.13;2.97;;;;;;;;;;5027745;28;20313;-26
2023/07/05 01:15:17;;;;;;;4.17;2.87;;;;;;;;;;5030557;28;20201;-25
2023/07/05 01:17:48;;;;;;;4.33;2.97;;;;;;;;;;5026385;28;20229;-27
2023/07/05 01:20:23;;;;;;;3.63;3.10;;;;;;;;;;5020580;28;20543;-27
2023/07/05 01:23:08;;;;;;;6.67;3.60;;;;;;;;;;5033089;28;20225;-25
2023/07/05 01:25:54;;;;;;;5.23;2.97;;;;;;;;;;5031971;28;20210;-25
2023/07/05 01:28:33;;;;;;;3.97;2.70;;;;;;;;;;5035273;28;20287;-25
2023/07/05 01:31:17;;;;;;;4.07;3.00;;;;;;;;;;5040212;28;20206;-24
2023/07/05 01:33:49;;;;;;;3.20;2.70;;;;;;;;;;5028089;28;20211;-27
2023/07/05 01:36:16;;;;;;;3.07;2.63;;;;;;;;;;5026105;28;20319;-24
2023/07/05 01:38:43;;;;;;;3.50;3.20;;;;;;;;;;5038971;28;20222;-28
2023/07/05 01:43:46;;;;;;;4.43;2.83;;;;;;;;;;5081813;23;20240;-27
2023/07/05 01:46:17;;;;;;;2.83;2.60;;;;;;;;;;5066685;28;20198;-24
2023/07/05 01:48:56;;;;;;;4.33;3.40;;;;;;;;;;5066934;28;20225;-27
2023/07/05 01:51:27;;;;;;;4.50;2.93;;;;;;;;;;5089987;28;20223;-24
2023/07/05 01:54:00;;;;;;;3.77;2.80;;;;;;;;;;5081515;28;20197;-23
2023/07/05 01:56:31;;;;;;;4.20;2.90;;;;;;;;;;5087009;28;20208;-25
2023/07/05 01:58:58;;;;;;;5.07;3.20;;;;;;;;;;5075564;28;20219;-24
2023/07/05 02:01:27;;;;;;;4.60;3.50;;;;;;;;;;5075694;28;20207;-27
2023/07/05 02:03:56;;;;;;;4.00;2.90;;;;;;;;;;5077658;28;20220;-25
2023/07/05 02:06:23;;;;;;;3.83;2.60;;;;;;;;;;5088830;28;20317;-28
2023/07/05 02:08:51;;;;;;;6.63;3.33;;;;;;;;;;5073994;28;20216;-27
2023/07/05 02:11:18;;;;;;;3.37;3.07;;;;;;;;;;5078948;28;20220;-26
2023/07/05 02:13:45;;;;;;;3.40;3.10;;;;;;;;;;5086429;28;20200;-27
2023/07/05 02:16:13;;;;;;;4.13;2.90;;;;;;;;;;5095050;28;20568;-26
2023/07/05 02:18:40;;;;;;;3.37;2.87;;;;;;;;;;5094030;28;20228;-30
2023/07/05 02:21:11;;;;;;;4.23;3.10;;;;;;;;;;5087376;28;20287;-25
2023/07/05 02:23:38;;;;;;;3.90;2.72;;;;;;;;;;5084877;28;20196;-29
2023/07/05 02:26:06;;;;;;;3.27;2.80;;;;;;;;;;5080992;28;20200;-27
2023/07/05 02:28:34;;;;;;;3.67;3.20;;;;;;;;;;5084217;28;20223;-27
2023/07/05 02:31:04;;;;;;;4.67;3.00;;;;;;;;;;5095753;28;20207;-25
2023/07/05 02:33:32;;;;;;;3.47;2.73;;;;;;;;;;5087458;28;20224;-25
2023/07/05 02:35:59;;;;;;;4.53;3.23;;;;;;;;;;5083789;28;20200;-28
2023/07/05 02:38:27;;;;;;;4.63;3.00;;;;;;;;;;5083711;28;20224;-25
2023/07/05 02:40:54;;;;;;;5.63;2.93;;;;;;;;;;5079005;28;20211;-25
2023/07/05 02:43:21;;;;;;;3.53;3.23;;;;;;;;;;5079573;28;20216;-27
2023/07/05 02:45:50;;;;;;;4.37;2.80;;;;;;;;;;5088438;28;20203;-25
2023/07/05 02:48:17;;;;;;;2.80;2.60;;;;;;;;;;5070793;28;20225;-27
2023/07/05 02:50:44;;;;;;;4.30;3.00;;;;;;;;;;5087855;28;20216;-27
2023/07/05 02:53:11;;;;;;;4.10;3.13;;;;;;;;;;5080407;28;20225;-27
2023/07/05 02:55:41;;;;;;;7.40;2.70;;;;;;;;;;5073026;28;20205;-25
2023/07/05 02:58:08;;;;;;;3.83;2.70;;;;;;;;;;5072883;28;20248;-27
2023/07/05 03:00:36;;;;;;;4.27;2.80;;;;;;;;;;5089597;28;20197;-25
2023/07/05 03:03:03;;;;;;;3.40;2.60;;;;;;;;;;5087578;28;20204;-28
2023/07/05 03:05:32;;;;;;;2.90;2.50;;;;;;;;;;5090548;28;20215;-27
2023/07/05 03:07:59;;;;;;;3.83;2.90;;;;;;;;;;5083856;28;20231;-26
2023/07/05 03:10:26;;;;;;;4.47;3.00;;;;;;;;;;5073090;28;20228;-26
2023/07/05 03:12:55;;;;;;;3.00;2.70;;;;;;;;;;5075123;28;20228;-25
2023/07/05 03:15:22;;;;;;;3.03;2.73;;;;;;;;;;5091591;28;20695;-28
2023/07/05 03:17:49;;;;;;;3.17;2.80;;;;;;;;;;5088170;28;20220;-26
2023/07/05 03:20:16;;;;;;;3.83;2.63;;;;;;;;;;5083824;28;20211;-26
2023/07/05 03:22:44;;;;;;;4.17;2.60;;;;;;;;;;5090605;28;20195;-27
2023/07/05 03:25:11;;;;;;;3.13;2.47;;;;;;;;;;5079660;28;20225;-26
2023/07/05 03:27:38;;;;;;;7.90;3.77;;;;;;;;;;5081123;28;20235;-27
2023/07/05 03:30:07;;;;;;;4.27;2.57;;;;;;;;;;5077823;28;20205;-27
2023/07/05 03:32:34;;;;;;;2.63;2.13;;;;;;;;;;5071983;28;20254;-25
2023/07/05 03:35:01;;;;;;;5.10;2.33;;;;;;;;;;5082853;28;20201;-26
2023/07/05 03:37:29;;;;;;;3.83;2.23;;;;;;;;;;5077559;28;20205;-27
2023/07/05 03:39:56;;;;;;;2.90;1.77;;;;;;;;;;5074487;28;20213;-23
2023/07/05 03:42:23;;;;;;;3.17;1.47;;;;;;;;;;5071951;28;20217;-28
2023/07/05 03:44:50;;;;;;;3.43;1.93;;;;;;;;;;5090729;28;20202;-26
2023/07/05 03:47:19;;;;;;;2.17;1.77;;;;;;;;;;5076325;28;20201;-30
2023/07/05 03:49:46;;;;;;;1.70;1.60;;;;;;;;;;5074541;28;20212;-25
2023/07/05 03:52:13;;;;;;;3.17;1.87;;;;;;;;;;5073581;28;20407;-26
2023/07/05 03:54:41;;;;;;;3.17;2.03;;;;;;;;;;5071006;28;20250;-29
2023/07/05 03:57:08;;;;;;;2.07;1.87;;;;;;;;;;5082297;28;20185;-25
2023/07/05 03:59:35;;;;;;;2.50;2.13;;;;;;;;;;5078942;28;20228;-24
2023/07/05 04:02:03;;;;;;;1.97;1.80;;;;;;;;;;5074709;28;20202;-23
2023/07/05 04:04:31;;;;;;;3.10;2.60;;;;;;;;;;5092312;28;20283;-25
2023/07/05 04:06:59;;;;;;;2.57;2.37;;;;;;;;;;5088370;28;20196;-27
2023/07/05 04:09:26;;;;;;;4.37;2.27;;;;;;;;;;5075477;28;20240;-26
2023/07/05 04:11:53;;;;;;;6.53;2.57;;;;;;;;;;5084526;28;20199;-26
2023/07/05 04:14:20;;;;;;;2.60;2.40;;;;;;;;;;5093641;28;20200;-24
2023/07/05 04:16:48;;;;;;;4.00;2.60;;;;;;;;;;5083334;28;20197;-23
2023/07/05 04:19:15;;;;;;;4.67;2.17;;;;;;;;;;5085488;28;20232;-25
2023/07/05 04:21:44;;;;;;;4.17;2.50;;;;;;;;;;5072588;28;20283;-22
2023/07/05 04:24:11;;;;;;;2.60;2.40;;;;;;;;;;5070203;28;20734;-22
2023/07/05 04:26:38;;;;;;;3.70;2.37;;;;;;;;;;5083026;28;20216;-25
2023/07/05 04:29:05;;;;;;;3.37;2.20;;;;;;;;;;5084060;28;20226;-24
2023/07/05 04:31:32;;;;;;;5.43;2.50;;;;;;;;;;5092150;28;20203;-26
2023/07/05 04:34:00;;;;;;;4.23;2.27;;;;;;;;;;5083863;28;20220;-25
2023/07/05 04:36:27;;;;;;;2.10;1.77;;;;;;;;;;5077766;28;20254;-27
2023/07/05 04:38:56;;;;;;;3.07;2.10;;;;;;;;;;5076738;28;20220;-28
2023/07/05 04:41:23;;;;;;;2.90;1.90;;;;;;;;;;5073789;28;20205;-24
2023/07/05 04:43:51;;;;;;;2.20;2.00;;;;;;;;;;5083924;28;20203;-23
2023/07/05 04:46:18;;;;;;;3.93;2.10;;;;;;;;;;5085992;28;20227;-29
2023/07/05 04:48:46;;;;;;;3.03;1.90;;;;;;;;;;5075123;28;20567;-25
2023/07/05 04:51:13;;;;;;;2.23;1.73;;;;;;;;;;5077125;28;20514;-27
2023/07/05 04:53:40;;;;;;;2.63;2.03;;;;;;;;;;5072530;28;20217;-25
2023/07/05 04:56:12;;;;;;;1.97;1.73;;;;;;;;;;5081394;28;20192;-27
2023/07/05 04:58:39;;;;;;;1.77;1.67;;;;;;;;;;5073008;28;20223;-27
2023/07/05 05:01:07;;;;;;;2.83;2.20;;;;;;;;;;5072084;28;20681;-26
2023/07/05 05:03:34;;;;;;;4.80;2.40;;;;;;;;;;5076562;28;20200;-27
2023/07/05 05:06:01;;;;;;;3.03;2.43;;;;;;;;;;5085209;28;20209;-26
2023/07/05 05:08:28;;;;;;;2.57;2.00;;;;;;;;;;5072057;28;20326;-27
2023/07/05 05:10:57;;;;;;;2.43;1.90;;;;;;;;;;5070261;28;20215;-22
2023/07/05 05:13:25;;;;;;;3.43;1.90;;;;;;;;;;5088375;28;20219;-26
2023/07/05 05:15:54;;;;;;;1.90;1.80;;;;;;;;;;5091566;28;20231;-27
2023/07/05 05:18:21;;;;;;;2.33;1.80;;;;;;;;;;5083547;28;20311;-28
2023/07/05 05:20:48;;;;;;;3.87;1.63;;;;;;;;;;5075184;28;20195;-27
2023/07/05 05:23:15;;;;;;;2.30;1.87;;;;;;;;;;5092712;28;20198;-26
2023/07/05 05:25:43;;;;;;;3.70;1.80;;;;;;;;;;5075879;28;20193;-27
2023/07/05 05:28:10;;;;;;;3.57;2.17;;;;;;;;;;5078514;28;20221;-23
2023/07/05 05:30:39;;;;;;;2.50;2.30;;;;;;;;;;5090752;28;20196;-25
2023/07/05 05:33:06;;;;;;;3.17;2.37;;;;;;;;;;5090813;28;20259;-24
2023/07/05 05:35:34;;;;;;;1.90;1.70;;;;;;;;;;5085772;28;20199;-27
2023/07/05 05:38:02;;;;;;;3.85;2.17;;;;;;;;;;5087778;28;20278;-25
2023/07/05 05:40:29;;;;;;;3.37;1.93;;;;;;;;;;5070637;28;20204;-26
2023/07/05 05:42:58;;;;;;;2.22;2.00;;;;;;;;;;5084361;28;20200;-28
2023/07/05 05:45:25;;;;;;;2.33;2.13;;;;;;;;;;5078473;28;20206;-24
2023/07/05 05:47:53;;;;;;;2.57;2.20;;;;;;;;;;5084651;28;20232;-25
2023/07/05 05:50:22;;;;;;;2.58;2.38;;;;;;;;;;5072244;28;20207;-26
2023/07/05 05:52:50;;;;;;;1.92;1.80;;;;;;;;;;5083369;28;20217;-27
2023/07/05 05:55:17;;;;;;;3.30;2.22;;;;;;;;;;5084885;28;20208;-26
2023/07/05 05:57:44;;;;;;;2.38;1.95;;;;;;;;;;5084321;28;20228;-25
2023/07/05 06:00:12;;;;;;;3.30;1.95;;;;;;;;;;5072580;28;20209;-26
2023/07/05 06:02:39;;;;;;;2.03;1.75;;;;;;;;;;5074051;28;20195;-24
2023/07/05 06:05:08;;;;;;;5.15;2.00;;;;;;;;;;5083682;28;20193;-25
2023/07/05 06:07:35;;;;;;;2.47;1.75;;;;;;;;;;5081623;28;20202;-27
2023/07/05 06:10:02;;;;;;;1.50;1.40;;;;;;;;;;5080156;28;20197;-24
2023/07/05 06:12:29;;;;;;;3.50;1.73;;;;;;;;;;5085492;28;20211;-24
2023/07/05 06:14:57;;;;;;;1.40;1.30;;;;;;;;;;5095863;28;20204;-24
2023/07/05 06:17:24;;;;;;;1.58;1.48;;;;;;;;;;5085252;28;20200;-23
2023/07/05 06:19:51;;;;;;;2.50;1.65;;;;;;;;;;5086908;28;20204;-26
2023/07/05 06:22:19;;;;;;;2.40;1.42;;;;;;;;;;5079202;28;20208;-24
2023/07/05 06:24:48;;;;;;;3.83;1.63;;;;;;;;;;5075490;28;20221;-24
2023/07/05 06:27:17;;;;;;;2.15;1.35;;;;;;;;;;5082011;28;20231;-25
2023/07/05 06:29:44;;;;;;;3.63;1.60;;;;;;;;;;5075268;28;20209;-28
2023/07/05 06:32:11;;;;;;;1.65;1.55;;;;;;;;;;5074811;28;20207;-25
2023/07/05 06:34:38;;;;;;;1.90;1.40;;;;;;;;;;5075658;28;20308;-28
2023/07/05 06:37:05;;;;;;;1.55;1.45;;;;;;;;;;5080483;28;20200;-27
2023/07/05 06:39:34;;;;;;;1.48;1.38;;;;;;;;;;5084499;28;20216;-25
2023/07/05 06:42:01;;;;;;;2.78;1.80;;;;;;;;;;5085542;28;20205;-26
2023/07/05 06:44:28;;;;;;;2.60;1.40;;;;;;;;;;5091458;28;20260;-26
2023/07/05 06:46:55;;;;;;;1.95;1.50;;;;;;;;;;5079935;28;20193;-27
2023/07/05 06:49:22;;;;;;;2.42;1.60;;;;;;;;;;5081400;28;20220;-26
2023/07/05 06:51:50;;;;;;;1.67;1.42;;;;;;;;;;5074586;28;20221;-24
2023/07/05 06:54:17;;;;;;;2.50;1.83;;;;;;;;;;5074462;28;20225;-27
2023/07/05 06:56:45;;;;;;;3.35;1.58;;;;;;;;;;5075348;28;20288;-26
2023/07/05 06:59:12;;;;;;;1.77;1.60;;;;;;;;;;5074301;28;20225;-25
2023/07/05 07:01:40;;;;;;;3.70;1.77;;;;;;;;;;5074511;28;20201;-27
2023/07/05 07:04:07;;;;;;;2.63;1.65;;;;;;;;;;5077640;28;20192;-26
2023/07/05 07:06:34;;;;;;;2.10;1.40;;;;;;;;;;5075593;28;20234;-27
2023/07/05 07:09:04;;;;;;;1.40;1.30;;;;;;;;;;5084808;28;20227;-28
2023/07/05 07:11:32;;;;;;;2.50;1.30;;;;;;;;;;5086546;28;20209;-26
2023/07/05 07:14:00;;;;;;;1.50;1.40;;;;;;;;;;5087142;28;20397;-25
2023/07/05 07:16:27;;;;;;;2.20;1.45;;;;;;;;;;5094339;28;20209;-27
2023/07/05 07:18:55;;;;;;;2.35;1.67;;;;;;;;;;5082902;28;20229;-24
2023/07/05 07:21:23;;;;;;;1.42;1.33;;;;;;;;;;5081018;28;20226;-26
2023/07/05 07:23:51;;;;;;;1.20;1.20;;;;;;;;;;5085374;28;20294;-27
2023/07/05 07:26:18;;;;;;;3.90;1.48;;;;;;;;;;5079127;28;20204;-30
2023/07/05 07:28:46;;;;;;;1.88;1.25;;;;;;;;;;5076840;28;20227;-25
2023/07/05 07:31:16;;;;;;;4.85;1.58;;;;;;;;;;5093957;28;20204;-25
2023/07/05 07:33:43;;;;;;;2.22;1.50;;;;;;;;;;5082294;28;20227;-27
2023/07/05 07:36:11;;;;;;;4.13;1.95;;;;;;;;;;5081087;28;20207;-27
2023/07/05 07:38:38;;;;;;;2.70;1.60;;;;;;;;;;5081438;28;20213;-23
2023/07/05 07:41:05;;;;;;;2.88;1.75;;;;;;;;;;5081629;28;20200;-26
2023/07/05 07:43:33;;;;;;;3.40;1.40;;;;;;;;;;5084914;28;20489;-26
2023/07/05 07:46:00;;;;;;;2.58;2.05;;;;;;;;;;5085584;28;20196;-27
2023/07/05 07:48:28;;;;;;;1.85;1.50;;;;;;;;;;5151990;23;20620;-25
2023/07/05 07:50:55;;;;;;;2.42;1.75;;;;;;;;;;5046839;28;20208;-26
2023/07/05 07:53:22;;;;;;;1.45;1.30;;;;;;;;;;5045966;28;20226;-27
2023/07/05 07:55:49;;;;;;;1.73;1.63;;;;;;;;;;5039398;28;20205;-26
2023/07/05 07:58:16;;;;;;;2.03;1.20;;;;;;;;;;5041178;28;20700;-26
2023/07/05 08:00:44;;;;;;;4.95;1.20;;;;;;;;;;5009700;28;20658;-26
2023/07/05 08:03:11;;;;;;;1.25;1.15;;;;;;;;;;5018389;28;20198;-26
2023/07/05 08:05:39;;;;;;;2.28;1.20;;;;;;;;;;5030254;28;20194;-26
2023/07/05 08:08:06;;;;;;;1.55;1.42;;;;;;;;;;5027706;28;20215;-26
2023/07/05 08:10:33;;;;;;;3.03;1.00;;;;;;;;;;5031201;28;20210;-24
2023/07/05 08:13:00;;;;;;;1.90;1.25;;;;;;;;;;5034680;28;20202;-25
2023/07/05 08:15:28;;;;;;;1.83;1.38;;;;;;;;;;5033112;28;20205;-25
2023/07/05 08:17:55;;;;;;;1.70;0.97;;;;;;;;;;5028156;28;20222;-27
2023/07/05 08:20:22;;;;;;;1.63;1.10;;;;;;;;;;5025001;28;20233;-24
2023/07/05 08:22:51;;;;;;;2.97;1.20;;;;;;;;;;5030900;28;20412;-24
2023/07/05 08:25:18;;;;;;;1.23;1.13;;;;;;;;;;5023605;28;20205;-26
2023/07/05 08:27:45;;;;;;;1.55;1.10;;;;;;;;;;5030288;28;20222;-27
2023/07/05 08:30:12;;;;;;;2.15;1.30;;;;;;;;;;5030905;28;20209;-24
2023/07/05 08:32:40;;;;;;;1.20;1.10;;;;;;;;;;5030365;28;20206;-26
2023/07/05 08:35:07;;;;;;;1.70;1.13;;;;;;;;;;5020313;28;20552;-25
2023/07/05 08:37:34;;;;;;;1.30;1.20;;;;;;;;;;5029834;28;20206;-32
2023/07/05 08:40:05;;;;;;;3.87;1.50;;;;;;;;;;5023681;28;20198;-32
2023/07/05 08:42:39;;;;;;;1.73;1.17;;;;;;;;;;5027942;28;20206;-28
2023/07/05 08:45:16;;;;;;;4.73;1.10;;;;;;;;;;5033422;28;20551;-33
2023/07/05 08:47:46;;;;;;;1.43;1.27;;;;;;;;;;5030838;28;20228;-35
2023/07/05 08:50:17;;;;;;;1.80;1.00;;;;;;;;;;5024901;28;20202;-35
2023/07/05 08:52:47;;;;;;;3.87;1.07;;;;;;;;;;5030220;28;20206;-35
2023/07/05 08:55:17;;;;;;;1.27;0.93;;;;;;;;;;5024640;28;20312;-32
2023/07/05 08:57:47;;;;;;;1.73;0.93;;;;;;;;;;5029726;28;20222;-29
2023/07/05 09:00:15;;;;;;;2.53;1.33;;;;;;;;;;5030811;28;20289;-29
2023/07/05 09:02:42;;;;;;;1.37;0.70;;;;;;;;;;5030626;28;20205;-30
2023/07/05 09:05:15;;;;;;;1.20;1.10;;;;;;;;;;5024853;28;20194;-31
2023/07/05 09:07:46;;;;;;;1.63;0.90;;;;;;;;;;5027943;28;20272;-31
2023/07/05 09:10:18;;;;;;;1.63;1.00;;;;;;;;;;5023815;28;20284;-29
2023/07/05 09:12:51;;;;;;;1.33;1.10;;;;;;;;;;5025303;28;20202;-31
2023/07/05 09:15:21;;;;;;;1.53;0.90;;;;;;;;;;5030432;28;20218;-31
2023/07/05 09:17:52;;;;;;;1.83;1.10;;;;;;;;;;5029757;28;20214;-38
2023/07/05 09:20:35;;;;;;;1.63;0.97;;;;;;;;;;5021662;28;20282;-28
2023/07/05 09:23:06;;;;;;;1.13;0.83;;;;;;;;;;5021319;28;20644;-30
2023/07/05 09:25:34;;;;;;;1.63;0.73;;;;;;;;;;5020878;28;20656;-33
2023/07/05 09:28:06;;;;;;;1.90;1.03;;;;;;;;;;5030918;28;20224;-34
2023/07/05 09:30:34;;;;;;;1.47;0.90;;;;;;;;;;5031784;28;20197;-28
2023/07/05 09:33:05;;;;;;;3.47;0.70;;;;;;;;;;5030121;28;20213;-29
2023/07/05 09:35:35;;;;;;;1.10;1.00;;;;;;;;;;5018354;28;20233;-35
2023/07/05 09:38:04;;;;;;;1.67;1.17;;;;;;;;;;5028724;28;20218;-34
2023/07/05 09:40:33;;;;;;;2.05;0.88;;;;;;;;;;5022213;28;20429;-27
2023/07/05 09:43:02;;;;;;;0.93;0.85;;;;;;;;;;5029409;28;20199;-37
2023/07/05 09:45:31;;;;;;;0.90;0.90;;;;;;;;;;5033653;28;20721;-34
2023/07/05 09:47:59;;;;;;;3.75;1.05;;;;;;;;;;5029890;28;20226;-31
2023/07/05 09:50:26;;;;;;;0.90;0.90;;;;;;;;;;5027345;28;20214;-29
2023/07/05 09:52:55;;;;;;;1.10;1.00;;;;;;;;;;5025240;28;20199;-27
2023/07/05 09:55:22;;;;;;;1.63;1.30;;;;;;;;;;5022541;28;20282;-36
2023/07/05 09:57:50;;;;;;;1.35;1.25;;;;;;;;;;5031661;28;20225;-30
2023/07/05 10:00:25;;;;;;;1.73;1.02;;;;;;;;;;5033392;28;20195;-37
2023/07/05 10:02:55;;;;;;;1.30;1.20;;;;;;;;;;5033769;28;20560;-29
2023/07/05 10:05:26;;;;;;;1.98;1.17;;;;;;;;;;5018670;28;20389;-29
2023/07/05 10:07:55;;;;;;;1.35;1.10;;;;;;;;;;5026124;28;20207;-33
2023/07/05 10:10:25;;;;;;;2.40;1.30;;;;;;;;;;5022734;28;20637;-30
2023/07/05 10:13:00;;;;;;;1.00;1.00;;;;;;;;;;5032655;28;20588;-36
2023/07/05 10:15:27;;;;;;;1.73;1.63;;;;;;;;;;5033179;28;20277;-38
2023/07/05 10:17:57;;;;;;;0.93;0.93;;;;;;;;;;5032387;28;20214;-39
2023/07/05 10:20:26;;;;;;;1.35;1.25;;;;;;;;;;5020580;28;20271;-37
2023/07/05 10:23:01;;;;;;;3.08;2.10;;;;;;;;;;5027083;28;20206;-32
2023/07/05 10:25:33;;;;;;;1.90;1.73;;;;;;;;;;5030568;28;20206;-33
2023/07/05 10:28:02;;;;;;;1.80;1.63;;;;;;;;;;5030711;28;20216;-37
2023/07/05 10:30:29;;;;;;;1.40;1.30;;;;;;;;;;5033001;28;20196;-38
2023/07/05 10:33:10;;;;;;;2.67;1.40;;;;;;;;;;5029312;28;20238;-37
2023/07/05 10:35:45;;;;;;;3.03;1.45;;;;;;;;;;5023024;28;20214;-35
2023/07/05 10:38:20;;;;;;;1.52;1.40;;;;;;;;;;5032923;28;20222;-35
2023/07/05 10:40:47;;;;;;;1.10;1.10;;;;;;;;;;5025045;28;20194;-31
2023/07/05 10:43:14;;;;;;;2.45;1.25;;;;;;;;;;5032714;28;20213;-38
2023/07/05 10:45:42;;;;;;;1.67;1.42;;;;;;;;;;5032252;28;20197;-32
2023/07/05 10:48:17;;;;;;;1.40;1.10;;;;;;;;;;5024526;28;20226;-33
2023/07/05 10:50:45;;;;;;;1.70;1.60;;;;;;;;;;5028207;28;20209;-33
2023/07/05 10:53:15;;;;;;;2.13;1.20;;;;;;;;;;5031013;28;20294;-34
2023/07/05 10:55:44;;;;;;;1.30;1.23;;;;;;;;;;5024303;28;20218;-36
2023/07/05 10:58:14;;;;;;;1.55;1.45;;;;;;;;;;5029759;28;20222;-33
2023/07/05 11:00:43;;;;;;;2.10;1.48;;;;;;;;;;5030789;28;20201;-36
2023/07/05 11:03:13;;;;;;;2.90;1.30;;;;;;;;;;5024557;28;20206;-30
2023/07/05 11:05:43;;;;;;;1.70;1.60;;;;;;;;;;5032768;28;20202;-34
2023/07/05 11:08:17;;;;;;;1.60;1.50;;;;;;;;;;5032938;28;20278;-32
2023/07/05 11:10:44;;;;;;;1.70;1.55;;;;;;;;;;5028149;28;20202;-31
2023/07/05 11:13:14;;;;;;;2.25;2.05;;;;;;;;;;5034560;28;20256;-29
2023/07/05 11:15:42;;;;;;;1.70;1.48;;;;;;;;;;5035597;28;20210;-30
2023/07/05 11:18:11;;;;;;;1.98;1.77;;;;;;;;;;5032827;28;20221;-33
2023/07/05 11:20:47;;;;;;;1.65;1.55;;;;;;;;;;5026126;28;20213;-34
2023/07/05 11:23:34;;;;;;;1.60;1.42;;;;;;;;;;5028755;28;20194;-33
2023/07/05 11:26:02;;;;;;;1.85;1.65;;;;;;;;;;5024488;28;20188;-33
2023/07/05 11:28:34;;;;;;;2.00;1.90;;;;;;;;;;5029457;28;20230;-33
2023/07/05 11:31:01;;;;;;;2.42;1.83;;;;;;;;;;5032641;28;20203;-33
2023/07/05 11:33:28;;;;;;;2.83;1.70;;;;;;;;;;5026861;28;20217;-36
2023/07/05 11:35:58;;;;;;;1.83;1.73;;;;;;;;;;5031234;28;20309;-31
2023/07/05 11:38:44;;;;;;;1.75;1.65;;;;;;;;;;5028056;28;20224;-31
2023/07/05 11:41:23;;;;;;;2.40;1.58;;;;;;;;;;5022987;28;20190;-34
2023/07/05 11:43:56;;;;;;;1.88;1.67;;;;;;;;;;5030996;28;20222;-30
2023/07/05 11:46:37;;;;;;;1.67;1.58;;;;;;;;;;5031002;28;20205;-32
2023/07/05 11:49:25;;;;;;;1.75;1.65;;;;;;;;;;5022249;28;20532;-36
2023/07/05 11:51:56;;;;;;;1.52;1.42;;;;;;;;;;5030948;28;20237;-36
2023/07/05 11:54:27;;;;;;;2.20;2.00;;;;;;;;;;5026935;28;20200;-28
2023/07/05 11:56:56;;;;;;;3.08;1.63;;;;;;;;;;5015009;28;20196;-34
2023/07/05 11:59:26;;;;;;;2.08;1.65;;;;;;;;;;5026703;28;20712;-34
2023/07/05 12:01:53;;;;;;;2.80;1.92;;;;;;;;;;5034111;28;20290;-35
2023/07/05 12:04:21;;;;;;;2.33;2.00;;;;;;;;;;5022164;28;20203;-37
2023/07/05 12:06:50;;;;;;;1.08;0.98;;;;;;;;;;5029673;28;20201;-34
2023/07/05 12:09:21;;;;;;;1.80;1.65;;;;;;;;;;5026809;28;20678;-36
2023/07/05 12:11:55;;;;;;;4.30;1.80;;;;;;;;;;5025028;28;20212;-32
2023/07/05 12:14:22;;;;;;;1.70;1.60;;;;;;;;;;5030627;28;20713;-32
2023/07/05 12:16:49;;;;;;;2.38;1.88;;;;;;;;;;5030156;28;20196;-31
2023/07/05 12:19:19;;;;;;;1.95;1.75;;;;;;;;;;5026546;28;20262;-35
2023/07/05 12:21:52;;;;;;;3.92;1.70;;;;;;;;;;5021824;28;20219;-32
2023/07/05 12:24:21;;;;;;;1.70;1.60;;;;;;;;;;5024693;28;20218;-33
2023/07/05 12:26:48;;;;;;;2.17;1.08;;;;;;;;;;5024118;28;20213;-34
2023/07/05 12:29:22;;;;;;;2.75;1.70;;;;;;;;;;5030299;28;20241;-36
2023/07/05 12:31:51;;;;;;;1.60;1.45;;;;;;;;;;5029164;28;20297;-34
2023/07/05 12:34:19;;;;;;;2.53;1.75;;;;;;;;;;5019234;28;20224;-31
2023/07/05 12:36:47;;;;;;;2.38;1.75;;;;;;;;;;5028238;28;20199;-33
2023/07/05 12:39:15;;;;;;;1.58;1.48;;;;;;;;;;5025668;28;20684;-34
2023/07/05 12:41:44;;;;;;;3.10;1.70;;;;;;;;;;5019574;28;20266;-30
2023/07/05 12:44:14;;;;;;;1.67;1.40;;;;;;;;;;5030598;28;20282;-31
2023/07/05 12:46:42;;;;;;;1.98;1.73;;;;;;;;;;5029577;28;20200;-35
2023/07/05 12:49:13;;;;;;;3.53;1.83;;;;;;;;;;5024335;28;20706;-33
2023/07/05 12:51:50;;;;;;;1.73;1.60;;;;;;;;;;5020511;28;20196;-35
2023/07/05 12:54:17;;;;;;;2.70;1.98;;;;;;;;;;5026851;28;20199;-29
2023/07/05 12:56:47;;;;;;;4.38;2.38;;;;;;;;;;5029374;28;20279;-28
2023/07/05 12:59:27;;;;;;;1.52;1.42;;;;;;;;;;5031246;28;20224;-35
2023/07/05 13:01:54;;;;;;;2.67;1.60;;;;;;;;;;5029025;28;20220;-34
2023/07/05 13:04:22;;;;;;;1.77;1.67;;;;;;;;;;5020849;28;20212;-28
2023/07/05 13:06:50;;;;;;;4.15;1.83;;;;;;;;;;5029253;28;20574;-31
2023/07/05 13:09:24;;;;;;;2.03;1.80;;;;;;;;;;5027393;28;20231;-33
2023/07/05 13:11:57;;;;;;;2.30;1.73;;;;;;;;;;5031361;28;20197;-34
2023/07/05 13:14:26;;;;;;;3.05;1.85;;;;;;;;;;5031389;28;20203;-35
2023/07/05 13:16:57;;;;;;;1.90;1.80;;;;;;;;;;5019957;28;20245;-32
2023/07/05 13:19:34;;;;;;;2.03;1.73;;;;;;;;;;5018497;28;20235;-36
2023/07/05 13:22:15;;;;;;;1.85;1.65;;;;;;;;;;5016437;28;20205;-30
2023/07/05 13:24:47;;;;;;;1.95;1.60;;;;;;;;;;5000545;28;20207;-37
2023/07/05 13:27:21;;;;;;;1.67;1.58;;;;;;;;;;4999865;28;20302;-28
2023/07/05 13:29:49;;;;;;;3.45;1.63;;;;;;;;;;5008774;28;20199;-33
2023/07/05 13:32:24;;;;;;;2.03;1.70;;;;;;;;;;5003393;28;20202;-39
2023/07/05 13:34:51;;;;;;;1.48;1.38;;;;;;;;;;5015010;28;20265;-36
2023/07/05 13:37:22;;;;;;;3.15;1.80;;;;;;;;;;5019820;28;20253;-37
2023/07/05 13:39:49;;;;;;;1.65;1.40;;;;;;;;;;5010969;28;20205;-30
2023/07/05 13:42:16;;;;;;;2.15;1.70;;;;;;;;;;5019950;28;20213;-30
2023/07/05 13:44:46;;;;;;;3.60;1.63;;;;;;;;;;5016587;28;20198;-36
2023/07/05 13:47:14;;;;;;;2.03;1.63;;;;;;;;;;5016389;28;20280;-34
2023/07/05 13:49:41;;;;;;;2.17;1.40;;;;;;;;;;5014406;28;20236;-33
2023/07/05 13:52:14;;;;;;;2.15;1.48;;;;;;;;;;5002591;28;20202;-29
2023/07/05 13:54:41;;;;;;;3.90;1.60;;;;;;;;;;4996846;28;20594;-32
2023/07/05 13:57:10;;;;;;;1.70;1.55;;;;;;;;;;5020662;28;20221;-35
2023/07/05 13:59:37;;;;;;;2.55;1.42;;;;;;;;;;5023984;28;20573;-32
2023/07/05 14:02:19;;;;;;;1.77;1.60;;;;;;;;;;5025362;28;20195;-33
2023/07/05 14:04:46;;;;;;;2.03;1.83;;;;;;;;;;5017209;28;20527;-35
2023/07/05 14:07:14;;;;;;;2.30;1.50;;;;;;;;;;5028244;28;20213;-35
2023/07/05 14:09:41;;;;;;;1.95;1.70;;;;;;;;;;5021550;28;20251;-33
2023/07/05 14:12:10;;;;;;;3.50;1.15;;;;;;;;;;5022066;28;20198;-30
2023/07/05 14:14:37;;;;;;;1.73;1.60;;;;;;;;;;5025398;28;20203;-30
2023/07/05 14:17:06;;;;;;;2.20;1.50;;;;;;;;;;5026624;28;20228;-36
2023/07/05 14:19:33;;;;;;;1.92;1.58;;;;;;;;;;5024793;28;20218;-32
2023/07/05 14:22:00;;;;;;;2.00;1.70;;;;;;;;;;5024293;28;20217;-30
2023/07/05 14:24:27;;;;;;;1.92;1.50;;;;;;;;;;5026210;28;20200;-36
2023/07/05 14:26:54;;;;;;;3.67;2.17;;;;;;;;;;5031036;28;20202;-31
2023/07/05 14:31:50;;;;;;;1.90;1.80;;;;;;;;;;5092638;28;20236;-29
2023/07/05 14:34:18;;;;;;;2.85;1.77;;;;;;;;;;5090626;28;20213;-31
2023/07/05 14:36:45;;;;;;;1.67;1.48;;;;;;;;;;5080281;28;20230;-31
2023/07/05 14:39:12;;;;;;;2.63;1.60;;;;;;;;;;5074781;28;20240;-32
2023/07/05 14:41:40;;;;;;;1.42;1.33;;;;;;;;;;5068443;28;20303;-30
2023/07/05 14:44:09;;;;;;;2.65;1.65;;;;;;;;;;5073216;28;20679;-32
2023/07/05 14:46:37;;;;;;;3.70;1.83;;;;;;;;;;5075315;28;20211;-32
2023/07/05 14:49:04;;;;;;;1.90;1.77;;;;;;;;;;5059934;28;20228;-33
2023/07/05 14:51:32;;;;;;;2.45;1.73;;;;;;;;;;5055750;28;20219;-34
2023/07/05 14:53:59;;;;;;;3.13;1.60;;;;;;;;;;5065333;28;20236;-34
2023/07/05 14:56:26;;;;;;;3.25;1.88;;;;;;;;;;5066630;28;20243;-35
2023/07/05 14:58:53;;;;;;;3.45;2.03;;;;;;;;;;5073977;28;20717;-34